createdAt,value
2022-11-18T00:01:22.419Z,99401.56
2022-11-18T00:03:51.541Z,99405.72
2022-11-18T00:07:27.332Z,99407.38
2022-11-18T00:09:56.737Z,99405.38
2022-11-18T00:12:42.086Z,99403.59
2022-11-18T00:15:10.378Z,99402.66
2022-11-18T00:17:38.441Z,99407.78
2022-11-18T00:20:07.191Z,99408.66
2022-11-18T00:22:35.236Z,99412.22
2022-11-18T00:25:04.675Z,99420.56
2022-11-18T00:27:33.012Z,99427.78
2022-11-18T00:30:01.022Z,99433.38
2022-11-18T00:32:29.070Z,99433.25
2022-11-18T00:34:57.117Z,99439.56
2022-11-18T00:37:25.319Z,99443.97
2022-11-18T00:39:53.344Z,99443.16
2022-11-18T00:42:40.666Z,99444.78
2022-11-18T00:45:09.354Z,99452.75
2022-11-18T01:05:09.343Z,99460.47
2022-11-18T01:07:38.177Z,99462.38
2022-11-18T01:10:09.341Z,99468.66
2022-11-18T01:20:26.259Z,99472.63
2022-11-18T01:22:57.326Z,99477.97
2022-11-18T01:25:25.403Z,99471.28
2022-11-18T01:27:53.910Z,99481.00
2022-11-18T01:30:22.159Z,99476.50
2022-11-18T01:32:50.231Z,99471.59
2022-11-18T01:35:18.515Z,99473.50
2022-11-18T01:37:48.143Z,99477.66
2022-11-18T01:40:16.807Z,99479.13
2022-11-18T01:42:46.439Z,99491.34
2022-11-18T01:45:26.227Z,99487.63
2022-11-18T01:48:00.429Z,99495.78
2022-11-18T01:50:29.798Z,99489.00
2022-11-18T01:53:03.074Z,99498.09
2022-11-18T01:55:36.194Z,99500.78
2022-11-18T01:58:09.122Z,99500.59
2022-11-18T02:00:37.448Z,99511.16
2022-11-18T02:03:05.913Z,99512.00
2022-11-18T02:05:40.606Z,99516.28
2022-11-18T02:08:10.935Z,99516.16
2022-11-18T02:10:39.139Z,99516.03
2022-11-18T02:13:11.585Z,99520.84
2022-11-18T02:15:50.229Z,99522.50
2022-11-18T02:18:29.841Z,99520.84
2022-11-18T02:21:09.407Z,99529.28
2022-11-18T02:24:05.037Z,99530.34
2022-11-18T02:27:02.392Z,99532.00
2022-11-18T02:29:38.241Z,99527.72
2022-11-18T02:32:13.319Z,99540.09
2022-11-18T02:34:45.997Z,99542.72
2022-11-18T02:37:19.414Z,99544.72
2022-11-18T02:39:56.017Z,99549.81
2022-11-18T02:42:25.910Z,99551.84
2022-11-18T02:45:01.091Z,99542.31
2022-11-18T02:47:31.839Z,99552.66
2022-11-18T02:50:04.507Z,99549.31
2022-11-18T02:52:35.972Z,99548.50
2022-11-18T02:55:07.965Z,99552.28
2022-11-18T02:57:38.196Z,99553.72
2022-11-18T03:00:09.345Z,99556.56
2022-11-18T03:02:43.914Z,99560.94
2022-11-18T03:05:18.583Z,99560.53
2022-11-18T03:07:51.655Z,99566.16
2022-11-18T03:10:23.114Z,99563.25
2022-11-18T03:13:10.405Z,99568.38
2022-11-18T03:15:46.882Z,99570.25
2022-11-18T03:18:21.460Z,99575.47
2022-11-18T03:20:54.584Z,99577.16
2022-11-18T03:23:28.986Z,99583.25
2022-11-18T03:26:01.995Z,99584.56
2022-11-18T03:28:37.323Z,99591.56
2022-11-18T03:31:12.271Z,99590.75
2022-11-18T03:33:46.309Z,99595.53
2022-11-18T03:36:16.752Z,99588.63
2022-11-18T03:38:49.078Z,99591.25
2022-11-18T03:41:19.918Z,99595.19
2022-11-18T03:43:53.915Z,99602.00
2022-11-18T03:46:29.293Z,99609.72
2022-11-18T03:49:00.293Z,99604.88
2022-11-18T03:51:35.040Z,99610.34
2022-11-18T03:54:07.877Z,99612.63
2022-11-18T03:56:39.564Z,99617.97
2022-11-18T03:59:14.407Z,99620.59
2022-11-18T04:01:48.750Z,99622.03
2022-11-18T04:04:17.237Z,99624.44
2022-11-18T04:06:50.631Z,99630.28
2022-11-18T04:09:24.023Z,99632.16
2022-11-18T04:12:04.506Z,99634.91
2022-11-18T04:14:34.694Z,99634.06
2022-11-18T04:17:08.770Z,99641.69
2022-11-18T04:19:37.282Z,99642.19
2022-11-18T04:22:05.372Z,99648.50
2022-11-18T04:24:33.905Z,99652.78
2022-11-18T04:27:02.710Z,99655.53
2022-11-18T04:29:31.179Z,99658.03
2022-11-18T04:31:59.509Z,99658.13
2022-11-18T04:34:29.403Z,99656.13
2022-11-18T04:36:57.876Z,99665.53
2022-11-18T04:39:26.123Z,99665.53
2022-11-18T04:41:56.809Z,99662.69
2022-11-18T04:44:26.040Z,99673.28
2022-11-18T04:46:54.872Z,99673.50
2022-11-18T04:49:22.984Z,99675.69
2022-11-18T04:51:53.226Z,99674.84
2022-11-18T04:54:22.454Z,99681.00
2022-11-18T04:56:50.763Z,99680.19
2022-11-18T04:59:21.050Z,99687.91
2022-11-18T05:01:49.803Z,99694.84
2022-11-18T05:04:19.753Z,99690.69
2022-11-18T05:06:48.235Z,99693.94
2022-11-18T05:09:18.266Z,99698.56
2022-11-18T05:12:04.480Z,99695.78
2022-11-18T05:14:32.988Z,99700.47
2022-11-18T05:17:02.937Z,99702.03
2022-11-18T05:19:31.188Z,99704.47
2022-11-18T05:21:59.753Z,99704.25
2022-11-18T05:24:29.178Z,99710.59
2022-11-18T05:26:57.456Z,99706.91
2022-11-18T05:29:25.622Z,99712.09
2022-11-18T05:31:53.638Z,99719.03
2022-11-18T05:34:21.826Z,99725.09
2022-11-18T05:36:49.991Z,99716.19
2022-11-18T05:39:18.795Z,99725.72
2022-11-18T05:42:06.051Z,99724.03
2022-11-18T05:44:34.153Z,99726.66
2022-11-18T05:47:02.137Z,99723.81
2022-11-18T05:49:30.227Z,99723.09
2022-11-18T05:51:58.538Z,99740.69
2022-11-18T05:54:27.593Z,99734.81
2022-11-18T05:56:57.174Z,99738.41
2022-11-18T05:59:25.343Z,99744.59
2022-11-18T06:01:57.554Z,99743.66
2022-11-18T06:04:31.224Z,99744.59
2022-11-18T06:07:02.274Z,99753.25
2022-11-18T06:09:33.625Z,99749.81
2022-11-18T06:12:06.532Z,99755.88
2022-11-18T06:14:40.666Z,99756.00
2022-11-18T06:17:20.894Z,99765.63
2022-11-18T06:19:49.027Z,99772.75
2022-11-18T06:22:17.573Z,99777.16
2022-11-18T06:24:46.248Z,99779.44
2022-11-18T06:27:17.069Z,99779.78
2022-11-18T06:29:45.104Z,99778.22
2022-11-18T06:32:13.254Z,99783.34
2022-11-18T06:34:42.088Z,99791.53
2022-11-18T06:37:17.506Z,99791.53
2022-11-18T06:39:45.993Z,99801.88
2022-11-18T06:42:31.783Z,99811.00
2022-11-18T06:45:00.285Z,99807.34
2022-11-18T06:47:28.495Z,99814.06
2022-11-18T06:49:56.689Z,99808.84
2022-11-18T06:52:25.380Z,99810.81
2022-11-18T06:54:53.451Z,99823.38
2022-11-18T06:57:22.934Z,99828.94
2022-11-18T06:59:51.047Z,99824.22
2022-11-18T07:02:19.378Z,99827.97
2022-11-18T07:04:47.503Z,99838.34
2022-11-18T07:07:15.762Z,99843.13
2022-11-18T07:09:44.748Z,99848.38
2022-11-18T07:12:12.878Z,99853.53
2022-11-18T07:14:42.291Z,99858.84
2022-11-18T07:17:10.447Z,99855.78
2022-11-18T07:19:38.522Z,99858.41
2022-11-18T07:22:08.105Z,99867.41
2022-11-18T07:24:36.205Z,99866.66
2022-11-18T07:27:04.376Z,99871.25
2022-11-18T07:29:32.483Z,99878.28
2022-11-18T07:32:01.883Z,99877.53
2022-11-18T07:34:29.966Z,99888.94
2022-11-18T07:36:58.073Z,99884.34
2022-11-18T07:39:26.238Z,99889.28
2022-11-18T07:41:54.323Z,99888.25
2022-11-18T07:44:22.379Z,99891.47
2022-11-18T07:46:50.448Z,99899.03
2022-11-18T07:49:20.063Z,99903.72
2022-11-18T07:51:48.345Z,99914.09
2022-11-18T07:54:17.219Z,99911.56
2022-11-18T07:56:45.567Z,99912.00
2022-11-18T07:59:13.562Z,99913.16
2022-11-18T08:01:41.812Z,99918.38
2022-11-18T08:04:11.824Z,99925.28
2022-11-18T08:06:41.610Z,99932.28
2022-11-18T08:09:09.775Z,99927.81
2022-11-18T08:11:37.983Z,99935.09
2022-11-18T08:14:06.126Z,99936.56
2022-11-18T08:16:34.267Z,99945.91
2022-11-18T08:19:02.363Z,99949.09
2022-11-18T08:21:30.415Z,99940.09
2022-11-18T08:24:00.202Z,99950.78
2022-11-18T08:26:29.572Z,99959.81
2022-11-18T08:28:58.995Z,99959.47
2022-11-18T08:31:28.805Z,99959.38
2022-11-18T08:33:57.927Z,99965.47
2022-11-18T08:36:28.181Z,99961.25
2022-11-18T08:38:57.818Z,99970.25
2022-11-18T08:41:32.402Z,99969.44
2022-11-18T08:44:00.675Z,99967.94
2022-11-18T08:46:28.704Z,99970.16
2022-11-18T08:48:56.903Z,99970.66
2022-11-18T08:51:25.204Z,99967.22
2022-11-18T08:53:53.552Z,99974.31
2022-11-18T08:56:23.716Z,99977.78
2022-11-18T08:58:54.373Z,99975.72
2022-11-18T09:01:22.631Z,99973.84
2022-11-18T09:03:51.944Z,99987.34
2022-11-18T09:06:21.879Z,99985.78
2022-11-18T09:08:50.035Z,99984.09
2022-11-18T09:11:19.653Z,99989.44
2022-11-18T09:16:37.380Z,100001.03
2022-11-18T09:19:31.520Z,100005.13
2022-11-18T09:21:53.810Z,100008.16
2022-11-18T09:24:21.994Z,99999.94
2022-11-18T09:26:50.314Z,100002.97
2022-11-18T09:29:18.435Z,100008.50
2022-11-18T09:31:47.960Z,100004.81
2022-11-18T09:34:16.357Z,100015.03
2022-11-18T09:36:44.724Z,100016.81
2022-11-18T09:39:12.716Z,100018.44
2022-11-18T09:41:47.258Z,100018.88
2022-11-18T09:44:32.372Z,100026.88
2022-11-18T09:47:12.676Z,100032.38
2022-11-18T09:49:43.486Z,100032.19
2022-11-18T09:52:17.844Z,100045.50
2022-11-18T09:54:46.303Z,100047.44
2022-11-18T09:57:17.493Z,100052.75
2022-11-18T09:59:46.123Z,100053.97
2022-11-18T10:02:49.875Z,100055.84
2022-11-18T10:05:20.345Z,100062.19
2022-11-18T10:07:56.710Z,100055.41
2022-11-18T10:10:31.434Z,100066.72
2022-11-18T10:13:05.878Z,100069.53
2022-11-18T10:15:38.933Z,100072.31
2022-11-18T10:18:45.091Z,100071.13
2022-11-18T10:21:20.258Z,100068.88
2022-11-18T10:23:54.926Z,100076.50
2022-11-18T10:26:37.217Z,100072.50
2022-11-18T10:29:07.626Z,100076.75
2022-11-18T10:31:38.452Z,100078.19
2022-11-18T10:34:12.025Z,100084.59
2022-11-18T10:36:41.302Z,100082.22
2022-11-18T10:39:14.964Z,100083.53
2022-11-18T10:41:47.411Z,100089.47
2022-11-18T10:44:39.507Z,100093.34
2022-11-18T10:47:18.596Z,100089.50
2022-11-18T10:49:48.168Z,100093.22
2022-11-18T10:52:17.021Z,100093.59
2022-11-18T10:54:45.076Z,100088.91
2022-11-18T10:57:21.778Z,100097.91
2022-11-18T10:59:52.632Z,100093.47
2022-11-18T11:02:25.848Z,100093.06
2022-11-18T11:04:55.577Z,100103.22
2022-11-18T11:07:28.642Z,100100.94
2022-11-18T11:10:19.208Z,100099.59
2022-11-18T11:12:53.722Z,100109.19
2022-11-18T11:15:28.846Z,100106.91
2022-11-18T11:18:18.637Z,100099.38
2022-11-18T11:20:48.145Z,100106.44
2022-11-18T11:23:23.233Z,100105.59
2022-11-18T11:28:54.396Z,100109.50
2022-11-18T11:31:28.746Z,100114.22
2022-11-18T11:34:06.643Z,100112.53
2022-11-18T11:36:48.514Z,100113.41
2022-11-18T11:39:41.801Z,100122.09
2022-11-18T11:42:14.802Z,100124.53
2022-11-18T11:44:57.897Z,100120.69
2022-11-18T11:47:48.123Z,100121.53
2022-11-18T11:50:24.182Z,100119.72
2022-11-18T11:53:10.230Z,100120.47
2022-11-18T11:55:51.996Z,100117.34
2022-11-18T11:58:34.211Z,100116.03
2022-11-18T12:01:12.080Z,100110.66
2022-11-18T12:03:52.028Z,100117.72
2022-11-18T12:06:20.738Z,100116.47
2022-11-18T12:09:03.978Z,100123.06
2022-11-18T12:11:38.036Z,100120.91
2022-11-18T12:14:13.970Z,100127.72
2022-11-18T12:16:47.780Z,100126.81
2022-11-18T12:19:19.268Z,100123.25
2022-11-18T12:22:05.429Z,100125.66
2022-11-18T12:24:39.744Z,100122.75
2022-11-18T12:27:14.233Z,100132.31
2022-11-18T12:29:56.466Z,100129.69
2022-11-18T12:32:31.217Z,100134.94
2022-11-18T12:35:02.556Z,100126.63
2022-11-18T12:37:58.351Z,100139.31
2022-11-18T12:40:47.209Z,100141.31
2022-11-18T12:44:05.316Z,100141.81
2022-11-18T12:46:51.468Z,100140.88
2022-11-18T12:50:12.063Z,100140.50
2022-11-18T12:52:50.750Z,100139.31
2022-11-18T12:55:31.312Z,100146.97
2022-11-18T12:58:01.690Z,100138.88
2022-11-18T13:03:34.465Z,100157.16
2022-11-18T13:06:07.488Z,100156.41
2022-11-18T13:08:36.281Z,100156.16
2022-11-18T13:11:29.229Z,100156.78
2022-11-18T13:14:11.686Z,100162.78
2022-11-18T13:16:58.189Z,100158.22
2022-11-18T13:19:27.823Z,100166.94
2022-11-18T13:22:13.824Z,100166.72
2022-11-18T13:24:46.995Z,100165.75
2022-11-18T13:27:28.657Z,100161.34
2022-11-18T13:30:05.249Z,100168.75
2022-11-18T13:32:33.686Z,100171.13
2022-11-18T13:35:14.790Z,100179.75
2022-11-18T13:37:52.319Z,100175.22
2022-11-18T13:40:22.876Z,100182.16
2022-11-18T13:42:51.469Z,100181.91
2022-11-18T13:45:20.345Z,100185.16
2022-11-18T13:47:53.476Z,100185.47
2022-11-18T13:50:28.697Z,100188.72
2022-11-18T13:53:07.157Z,100183.59
2022-11-18T13:55:39.592Z,100183.69
2022-11-18T13:58:25.160Z,100180.09
2022-11-18T14:01:01.064Z,100181.91
2022-11-18T14:03:34.456Z,100183.94
2022-11-18T14:06:04.074Z,100183.34
2022-11-18T14:08:34.175Z,100187.53
2022-11-18T14:11:03.084Z,100184.78
2022-11-18T14:13:33.308Z,100193.41
2022-11-18T14:16:03.600Z,100186.47
2022-11-18T14:18:34.709Z,100199.84
2022-11-18T14:21:05.969Z,100203.19
2022-11-18T14:23:36.085Z,100205.81
2022-11-18T14:26:06.967Z,100204.03
2022-11-18T14:28:37.194Z,100213.94
2022-11-18T14:31:08.593Z,100218.59
2022-11-18T14:33:37.780Z,100221.22
2022-11-18T14:36:15.365Z,100222.09
2022-11-18T14:41:49.200Z,100220.97
2022-11-18T14:44:18.091Z,100222.78
2022-11-18T14:46:59.503Z,100221.97
2022-11-18T14:49:28.298Z,100218.25
2022-11-18T14:52:02.416Z,100219.44
2022-11-18T14:54:31.136Z,100226.22
2022-11-18T14:57:02.294Z,100224.06
2022-11-18T14:59:30.888Z,100226.31
2022-11-18T15:01:59.700Z,100223.81
2022-11-18T15:04:28.194Z,100225.94
2022-11-18T15:06:57.794Z,100238.50
2022-11-18T15:09:25.906Z,100237.53
2022-11-18T15:11:54.373Z,100238.00
2022-11-18T15:14:22.801Z,100237.16
2022-11-18T15:16:50.844Z,100241.81
2022-11-18T15:19:18.903Z,100239.28
2022-11-18T15:21:46.905Z,100244.03
2022-11-18T15:24:16.836Z,100248.78
2022-11-18T15:26:46.745Z,100251.75
2022-11-18T15:29:18.632Z,100253.97
2022-11-18T15:31:47.082Z,100268.28
2022-11-18T15:34:15.642Z,100262.72
2022-11-18T15:36:43.701Z,100263.03
2022-11-18T15:39:11.952Z,100268.53
2022-11-18T15:41:42.844Z,100270.75
2022-11-18T15:44:12.521Z,100266.53
2022-11-18T15:46:40.925Z,100265.31
2022-11-18T15:49:13.109Z,100265.63
2022-11-18T15:51:41.529Z,100269.41
2022-11-18T15:54:09.597Z,100264.38
2022-11-18T15:56:41.809Z,100267.31
2022-11-18T15:59:12.581Z,100270.28
2022-11-18T16:01:42.506Z,100271.44
2022-11-18T16:04:12.684Z,100276.88
2022-11-18T16:06:43.503Z,100277.31
2022-11-18T16:09:12.820Z,100289.06
2022-11-18T16:12:02.952Z,100275.31
2022-11-18T16:14:31.249Z,100280.44
2022-11-18T16:16:59.460Z,100293.03
2022-11-18T16:19:31.509Z,100290.69
2022-11-18T16:21:59.658Z,100291.13
2022-11-18T16:24:29.857Z,100296.97
2022-11-18T16:26:59.376Z,100303.56
2022-11-18T16:29:27.565Z,100303.34
2022-11-18T16:31:55.027Z,100298.59
2022-11-18T16:34:27.315Z,100303.56
2022-11-18T16:36:56.916Z,100297.88
2022-11-18T16:39:27.593Z,100302.78
2022-11-18T16:42:02.136Z,100314.28
2022-11-18T16:44:37.206Z,100317.22
2022-11-18T16:47:14.169Z,100320.41
2022-11-18T16:49:42.933Z,100324.88
2022-11-18T16:52:10.969Z,100323.38
2022-11-18T16:54:44.772Z,100330.88
2022-11-18T16:57:14.458Z,100325.75
2022-11-18T16:59:44.078Z,100320.06
2022-11-18T17:02:14.225Z,100329.13
2022-11-18T17:04:42.423Z,100334.47
2022-11-18T17:07:10.671Z,100335.69
2022-11-18T17:09:38.750Z,100338.31
2022-11-18T17:12:07.766Z,100335.13
2022-11-18T17:14:38.163Z,100337.84
2022-11-18T17:17:07.859Z,100337.06
2022-11-18T17:19:35.863Z,100341.69
2022-11-18T17:22:06.228Z,100338.88
2022-11-18T17:24:34.324Z,100346.72
2022-11-18T17:27:02.386Z,100348.75
2022-11-18T17:29:30.501Z,100353.66
2022-11-18T17:31:58.576Z,100356.16
2022-11-18T17:34:30.294Z,100366.63
2022-11-18T17:37:04.786Z,100366.53
2022-11-18T17:39:34.548Z,100370.75
2022-11-18T17:42:19.738Z,100369.16
2022-11-18T17:44:47.787Z,100375.69
2022-11-18T17:47:15.815Z,100375.88
2022-11-18T17:49:45.312Z,100382.81
2022-11-18T17:52:13.538Z,100389.91
2022-11-18T17:54:41.628Z,100385.22
2022-11-18T17:57:09.633Z,100395.13
2022-11-18T17:59:37.634Z,100403.28
2022-11-18T18:02:05.895Z,100400.28
2022-11-18T18:04:34.000Z,100401.66
2022-11-18T18:07:03.496Z,100407.16
2022-11-18T18:09:31.666Z,100411.09
2022-11-18T18:12:00.752Z,100419.56
2022-11-18T18:14:27.979Z,100414.53
2022-11-18T18:16:56.088Z,100419.97
2022-11-18T18:19:25.212Z,100429.00
2022-11-18T18:21:54.152Z,100430.56
2022-11-18T18:24:24.133Z,100433.16
2022-11-18T18:26:52.155Z,100426.66
2022-11-18T18:29:20.223Z,100429.22
2022-11-18T18:31:48.308Z,100432.88
2022-11-18T18:34:16.923Z,100431.69
2022-11-18T18:36:45.363Z,100436.72
2022-11-18T18:39:13.444Z,100438.00
2022-11-18T18:41:42.825Z,100446.97
2022-11-18T18:44:16.850Z,100448.56
2022-11-18T18:46:45.549Z,100451.44
2022-11-18T18:49:15.748Z,100454.13
2022-11-18T18:51:46.320Z,100458.38
2022-11-18T18:54:16.866Z,100463.66
2022-11-18T18:56:46.954Z,100463.25
2022-11-18T18:59:17.396Z,100465.16
2022-11-18T19:01:48.548Z,100477.75
2022-11-18T19:04:17.540Z,100481.94
2022-11-18T19:06:59.852Z,100478.69
2022-11-18T19:09:28.926Z,100479.94
2022-11-18T19:12:15.830Z,100482.44
2022-11-18T19:14:44.054Z,100482.75
2022-11-18T19:17:13.082Z,100483.84
2022-11-18T19:19:59.487Z,100483.41
2022-11-18T19:22:30.233Z,100482.94
2022-11-18T19:24:59.310Z,100483.81
2022-11-18T19:27:29.216Z,100487.25
2022-11-18T19:29:57.192Z,100491.63
2022-11-18T19:32:25.222Z,100500.88
2022-11-18T19:34:53.199Z,100496.41
2022-11-18T19:37:21.342Z,100503.56
2022-11-18T19:39:49.334Z,100510.53
2022-11-18T19:42:17.425Z,100509.00
2022-11-18T19:44:46.816Z,100511.41
2022-11-18T19:47:15.205Z,100526.81
2022-11-18T19:49:43.235Z,100528.41
2022-11-18T19:52:11.296Z,100520.56
2022-11-18T19:54:41.182Z,100524.72
2022-11-18T19:57:09.555Z,100530.94
2022-11-18T19:59:37.635Z,100535.44
2022-11-18T20:02:07.399Z,100529.38
2022-11-18T20:04:35.438Z,100539.34
2022-11-18T20:07:03.519Z,100546.72
2022-11-18T20:09:31.910Z,100558.22
2022-11-18T20:11:59.937Z,100560.75
2022-11-18T20:14:27.965Z,100561.66
2022-11-18T20:16:56.084Z,100565.75
2022-11-18T20:19:25.522Z,100573.03
2022-11-18T20:21:53.511Z,100561.78
2022-11-18T20:24:21.554Z,100573.34
2022-11-18T20:26:49.742Z,100578.97
2022-11-18T20:29:18.214Z,100578.22
2022-11-18T20:31:46.432Z,100579.88
2022-11-18T20:34:15.416Z,100589.06
2022-11-18T20:36:46.434Z,100581.00
2022-11-18T20:39:16.741Z,100585.81
2022-11-18T20:42:06.322Z,100588.31
2022-11-18T20:44:34.458Z,100581.41
2022-11-18T20:47:02.465Z,100590.09
2022-11-18T20:49:30.461Z,100585.56
2022-11-18T20:52:00.107Z,100584.47
2022-11-18T20:54:28.286Z,100592.97
2022-11-18T20:56:56.455Z,100598.16
2022-11-18T20:59:24.659Z,100602.41
2022-11-18T21:01:52.714Z,100600.84
2022-11-18T21:04:20.723Z,100604.44
2022-11-18T21:06:48.696Z,100607.19
2022-11-18T21:09:18.544Z,100610.09
2022-11-18T21:11:46.913Z,100614.56
2022-11-18T21:14:24.863Z,100615.00
2022-11-18T21:16:55.458Z,100622.03
2022-11-18T21:19:24.066Z,100613.63
2022-11-18T21:21:52.794Z,100616.38
2022-11-18T21:24:24.414Z,100622.25
2022-11-18T21:26:55.315Z,100629.75
2022-11-18T21:29:24.484Z,100633.31
2022-11-18T21:31:53.197Z,100634.06
2022-11-18T21:34:21.681Z,100635.56
2022-11-18T21:36:54.257Z,100634.16
2022-11-18T21:39:24.968Z,100646.25
2022-11-18T21:41:56.834Z,100644.75
2022-11-18T21:44:28.142Z,100643.06
2022-11-18T21:46:57.160Z,100659.19
2022-11-18T21:49:25.239Z,100663.72
2022-11-18T21:51:53.319Z,100662.16
2022-11-18T21:54:21.405Z,100662.34
2022-11-18T21:56:50.775Z,100663.25
2022-11-18T21:59:19.184Z,100664.41
2022-11-18T22:01:47.458Z,100657.84
2022-11-18T22:04:36.347Z,100660.53
2022-11-18T22:07:05.296Z,100672.50
2022-11-18T22:09:36.713Z,100679.50
2022-11-18T22:12:07.991Z,100679.63
2022-11-18T22:14:36.280Z,100687.69
2022-11-18T22:17:04.560Z,100685.31
2022-11-18T22:19:32.819Z,100693.91
2022-11-18T22:22:01.351Z,100699.94
2022-11-18T22:24:29.478Z,100684.28
2022-11-18T22:26:59.858Z,100685.25
2022-11-18T22:29:29.246Z,100693.03
2022-11-18T22:31:57.318Z,100688.13
2022-11-18T22:34:25.515Z,100685.44
2022-11-18T22:36:53.577Z,100685.66
2022-11-18T22:39:22.127Z,100681.47
2022-11-18T22:42:07.592Z,100680.69
2022-11-18T22:44:37.072Z,100685.97
2022-11-18T22:47:05.189Z,100689.59
2022-11-18T22:49:33.235Z,100679.63
2022-11-18T22:52:01.300Z,100686.53
2022-11-18T22:54:44.749Z,100684.94
2022-11-18T22:57:12.806Z,100694.31
2022-11-18T22:59:42.294Z,100689.16
2022-11-18T23:02:10.475Z,100696.00
2022-11-18T23:04:38.467Z,100699.72
2022-11-18T23:07:08.120Z,100703.16
2022-11-18T23:09:36.433Z,100705.00
2022-11-18T23:12:21.312Z,100713.41
2022-11-18T23:14:50.769Z,100716.34
2022-11-18T23:17:18.839Z,100720.47
2022-11-18T23:19:47.316Z,100721.44
2022-11-18T23:22:15.615Z,100725.53
2022-11-18T23:24:44.000Z,100728.84
2022-11-18T23:27:12.030Z,100727.50
2022-11-18T23:29:40.086Z,100732.75
2022-11-18T23:32:09.478Z,100731.66
2022-11-18T23:34:37.531Z,100735.56
2022-11-18T23:37:07.864Z,100743.63
2022-11-18T23:39:37.295Z,100746.53
2022-11-18T23:42:05.381Z,100743.00
2022-11-18T23:44:52.582Z,100750.22
2022-11-18T23:47:22.488Z,100752.88
2022-11-18T23:49:50.755Z,100751.91
2022-11-18T23:52:18.856Z,100749.97
2022-11-18T23:54:46.807Z,100758.00
2022-11-18T23:57:14.877Z,100767.50
2022-11-18T23:59:42.922Z,100761.69
